Time;durP1;ratioP1;P1;durP2;ratioP2;P2;SDS_P1;SDS_P2;PMS_P1;PMS_P2;Temp;Humidity;BMP_temperature;BMP_pressure;BME280_temperature;BME280_humidity;BME280_pressure;Samples;Min_cycle;Max_cycle;Signal;HPM_P1;HPM_P2
2021/11/01 00:00:13;;;;;;;12.24;10.38;;;;;;;6.21;62.09;101858.70;462337;113;923894;-75
2021/11/01 00:01:17;;;;;;;10.86;9.68;;;;;;;6.21;62.10;101853.28;461382;113;922550;-75
2021/11/01 00:02:20;;;;;;;11.60;10.00;;;;;;;6.20;62.09;101855.14;460903;113;930464;-75
2021/11/01 00:03:24;;;;;;;15.42;11.43;;;;;;;6.20;62.09;101857.84;460472;113;930253;-74
2021/11/01 00:04:27;;;;;;;13.49;11.36;;;;;;;6.19;62.08;101858.84;462187;114;923134;-74
2021/11/01 00:05:31;;;;;;;11.76;10.71;;;;;;;6.18;62.11;101853.58;461509;113;922603;-74
2021/11/01 00:06:35;;;;;;;11.27;10.16;;;;;;;6.16;62.12;101853.75;462394;113;922660;-72
2021/11/01 00:07:38;;;;;;;14.12;11.39;;;;;;;6.15;62.12;101849.34;461153;113;923018;-75
2021/11/01 00:08:42;;;;;;;12.12;10.23;;;;;;;6.14;62.11;101855.75;462348;114;922608;-73
2021/11/01 00:09:45;;;;;;;13.09;10.24;;;;;;;6.14;62.13;101850.34;461053;113;922705;-74
2021/11/01 00:10:49;;;;;;;11.68;10.51;;;;;;;6.13;62.14;101850.48;461931;113;922593;-75
2021/11/01 00:11:53;;;;;;;11.54;10.53;;;;;;;6.12;62.15;101851.52;461791;114;922450;-74
2021/11/01 00:12:57;;;;;;;13.21;11.00;;;;;;;6.11;62.20;101847.95;461617;114;922474;-75
2021/11/01 00:14:00;;;;;;;14.62;10.94;;;;;;;6.12;62.21;101851.52;462269;113;923378;-74
2021/11/01 00:15:05;;;;;;;15.80;11.02;;;;;;;6.10;62.24;101846.25;461430;113;923024;-75
2021/11/01 00:16:10;;;;;;;12.25;10.93;;;;;;;6.10;62.26;101842.69;461857;113;923370;-75
2021/11/01 00:17:14;;;;;;;11.86;10.76;;;;;;;6.09;62.27;101851.81;461282;113;922530;-75
2021/11/01 00:18:17;;;;;;;12.13;10.89;;;;;;;6.08;62.29;101852.81;462206;113;930616;-75
2021/11/01 00:19:21;;;;;;;12.62;11.36;;;;;;;6.08;62.31;101847.39;461563;113;922688;-75
2021/11/01 00:20:26;;;;;;;11.01;10.03;;;;;;;6.06;62.33;101844.86;460983;114;930774;-74
2021/11/01 00:21:29;;;;;;;14.18;11.24;;;;;;;6.06;62.30;101839.45;461531;114;922547;-75
2021/11/01 00:22:34;;;;;;;12.18;11.02;;;;;;;6.06;62.34;101847.57;460966;113;922786;-74
2021/11/01 00:23:38;;;;;;;12.94;10.62;;;;;;;6.06;62.36;101847.57;461827;113;930312;-75
2021/11/01 00:24:41;;;;;;;11.93;10.83;;;;;;;6.05;62.39;101842.30;461897;114;922569;-75
2021/11/01 00:25:45;;;;;;;11.42;10.09;;;;;;;6.05;62.36;101842.30;462342;114;922660;-75
2021/11/01 00:26:48;;;;;;;11.35;10.16;;;;;;;6.04;62.33;101849.57;461893;113;922598;-74
2021/11/01 00:27:52;;;;;;;12.22;10.86;;;;;;;6.02;62.39;101843.45;461610;113;923218;-74
2021/11/01 00:28:55;;;;;;;12.87;11.64;;;;;;;6.01;62.41;101841.73;461952;113;922782;-75
2021/11/01 00:29:59;;;;;;;13.14;10.68;;;;;;;6.00;62.44;101842.77;461253;114;930355;-75
2021/11/01 00:31:02;;;;;;;11.90;10.68;;;;;;;6.00;62.47;101839.20;461983;114;922632;-74
2021/11/01 00:32:06;;;;;;;12.16;10.94;;;;;;;5.99;62.49;101838.36;461107;113;930169;-73
2021/11/01 00:33:10;;;;;;;12.03;10.20;;;;;;;5.99;62.55;101837.50;462302;114;922668;-77
2021/11/01 00:34:14;;;;;;;11.20;9.81;;;;;;;5.98;62.64;101838.50;461194;114;923064;-75
2021/11/01 00:35:17;;;;;;;13.08;10.28;;;;;;;5.98;62.65;101838.50;461072;113;922602;-75
2021/11/01 00:36:21;;;;;;;11.83;10.58;;;;;;;5.97;62.68;101840.35;461187;113;930556;-76
2021/11/01 00:37:26;;;;;;;16.76;9.88;;;;;;;5.97;62.72;101834.09;460565;114;922998;-75
2021/11/01 00:38:29;;;;;;;11.51;9.40;;;;;;;5.96;62.73;101835.94;461182;114;923161;-74
2021/11/01 00:39:33;;;;;;;10.31;9.34;;;;;;;5.96;62.74;101832.38;461459;113;922645;-76
2021/11/01 00:40:39;;;;;;;11.04;10.03;;;;;;;5.96;62.79;101837.79;460756;113;922756;-75
2021/11/01 00:41:42;;;;;;;11.01;9.14;;;;;;;5.95;62.85;101834.27;461605;114;922600;-74
2021/11/01 00:42:46;;;;;;;11.51;10.40;;;;;;;5.95;62.87;101836.97;460577;113;930504;-75
2021/11/01 00:43:50;;;;;;;11.47;10.07;;;;;;;5.95;62.90;101836.97;461613;113;923019;-75
2021/11/01 00:44:54;;;;;;;10.80;9.68;;;;;;;5.95;62.91;101836.12;462541;113;930116;-73
2021/11/01 00:45:57;;;;;;;11.34;10.18;;;;;;;5.95;62.96;101839.67;462847;113;922599;-75
2021/11/01 00:47:01;;;;;;;11.95;9.78;;;;;;;5.95;63.00;101836.12;462041;113;923038;-76
2021/11/01 00:48:05;;;;;;;11.24;10.13;;;;;;;5.95;63.03;101836.12;460095;113;922609;-74
2021/11/01 00:49:08;;;;;;;11.74;10.49;;;;;;;5.95;63.05;101836.12;461598;113;922795;-75
2021/11/01 00:50:14;;;;;;;11.16;9.86;;;;;;;5.94;63.07;101846.09;463334;114;922957;-74
2021/11/01 00:51:17;;;;;;;13.96;10.04;;;;;;;5.95;63.10;101838.83;461988;113;922885;-75
2021/11/01 00:52:29;;;;;;;12.37;10.21;;;;;;;5.95;63.13;101844.23;461811;113;922619;-75
2021/11/01 00:53:35;;;;;;;10.82;9.80;;;;;;;5.95;63.15;101836.97;461048;113;930170;-78
2021/11/01 00:54:39;;;;;;;11.40;10.41;;;;;;;5.95;63.15;101833.41;462192;114;922518;-74
2021/11/01 00:55:52;;;;;;;11.94;10.86;;;;;;;5.94;63.17;101840.67;461001;113;922506;-75
2021/11/01 00:56:56;;;;;;;11.53;9.77;;;;;;;5.95;63.16;101836.12;460354;113;922931;-73
2021/11/01 00:57:59;;;;;;;11.55;10.43;;;;;;;5.95;63.22;101836.12;460940;114;922532;-74
2021/11/01 00:59:03;;;;;;;10.54;9.24;;;;;;;5.95;63.19;101831.56;461527;114;930352;-74
2021/11/01 01:00:07;;;;;;;9.95;8.99;;;;;;;5.96;63.21;101832.38;461904;113;922458;-73
2021/11/01 01:01:16;;;;;;;13.51;9.91;;;;;;;5.94;63.32;101837.97;461051;114;922514;-75
2021/11/01 01:02:21;;;;;;;10.49;9.45;;;;;;;5.95;63.31;101833.41;460344;114;922572;-73
2021/11/01 01:03:25;;;;;;;11.60;9.84;;;;;;;5.93;63.35;101836.27;461012;113;922683;-75
2021/11/01 01:04:28;;;;;;;9.37;8.47;;;;;;;5.93;63.42;101829.99;461004;113;922505;-77
2021/11/01 01:05:31;;;;;;;11.50;10.03;;;;;;;5.93;63.42;101829.99;461935;114;930638;-75
2021/11/01 01:06:35;;;;;;;10.87;9.36;;;;;;;5.92;63.39;101831.84;461446;114;922616;-75
2021/11/01 01:07:38;;;;;;;10.66;9.58;;;;;;;5.91;63.48;101826.58;461718;113;922690;-76
2021/11/01 01:08:42;;;;;;;12.17;10.86;;;;;;;5.90;63.50;101831.14;461294;113;923218;-75
2021/11/01 01:09:47;;;;;;;13.26;11.46;;;;;;;5.90;63.54;101833.84;461809;114;923062;-75
2021/11/01 01:10:51;;;;;;;14.63;12.84;;;;;;;5.91;63.58;101830.14;461489;113;922584;-75
2021/11/01 01:11:54;;;;;;;14.21;12.91;;;;;;;5.91;63.62;101824.72;461041;113;922750;-75
2021/11/01 01:12:58;;;;;;;19.10;17.08;;;;;;;5.91;63.63;101827.44;460510;113;930425;-76
2021/11/01 01:14:01;;;;;;;26.56;18.97;;;;;;;5.93;63.63;101828.14;460997;114;930499;-76
2021/11/01 01:15:05;;;;;;;29.70;21.02;;;;;;;5.94;63.64;101827.14;461196;113;930447;-75
2021/11/01 01:16:24;;;;;;;26.24;21.39;;;;;;;5.95;63.67;101831.56;461087;113;930369;-74
2021/11/01 01:17:20;;;;;;;27.31;21.41;;;;;;;5.96;63.65;101833.23;460405;114;922721;-77
2021/11/01 01:18:28;;;;;;;23.89;20.36;;;;;;;5.97;63.66;101817.84;462511;114;922493;-74
2021/11/01 01:19:42;;;;;;;22.27;19.85;;;;;;;5.99;63.70;101824.82;460991;113;923012;-76
2021/11/01 01:20:34;;;;;;;31.30;21.16;;;;;;;6.01;63.70;101822.79;446895;117;923305;-75
2021/11/01 01:22:59;;;;;;;20.75;17.59;;;;;;;6.05;63.69;101826.91;461445;114;929948;-75
2021/11/01 01:24:03;;;;;;;17.74;16.00;;;;;;;6.09;63.73;101827.44;462018;113;923172;-76
2021/11/01 01:25:13;;;;;;;18.21;16.32;;;;;;;6.10;63.73;101819.17;460832;113;922721;-76
2021/11/01 01:26:19;;;;;;;17.56;15.71;;;;;;;6.13;63.69;101816.14;461226;114;922506;-75
2021/11/01 01:27:22;;;;;;;17.76;16.03;;;;;;;6.18;63.71;101821.08;460241;114;922601;-76
2021/11/01 01:28:26;;;;;;;16.74;15.25;;;;;;;6.22;63.67;101819.78;462776;114;923209;-77
2021/11/01 01:29:29;;;;;;;15.09;13.64;;;;;;;6.25;63.63;101823.02;462679;113;924206;-74
2021/11/01 01:30:33;;;;;;;14.51;13.14;;;;;;;6.27;63.58;101815.59;461601;114;930131;-76
2021/11/01 01:31:39;;;;;;;14.14;12.94;;;;;;;6.31;63.54;101823.39;462923;114;930390;-76
2021/11/01 01:32:44;;;;;;;13.75;11.06;;;;;;;6.34;63.54;101823.09;461505;113;930321;-77
2021/11/01 01:33:47;;;;;;;13.53;11.87;;;;;;;6.36;63.52;101815.64;461614;113;922792;-77
2021/11/01 01:34:51;;;;;;;12.21;11.04;;;;;;;6.41;63.53;101821.44;461947;114;923052;-75
2021/11/01 01:35:57;;;;;;;13.01;11.74;;;;;;;6.44;63.48;101821.14;461203;113;930328;-75
2021/11/01 01:37:00;;;;;;;11.71;10.66;;;;;;;6.46;63.47;101819.95;461232;113;923512;-74
2021/11/01 01:38:03;;;;;;;11.40;10.32;;;;;;;6.50;63.40;101810.53;462396;113;922706;-74
2021/11/01 01:39:07;;;;;;;11.44;10.34;;;;;;;6.54;63.35;101817.33;462303;113;922630;-76
2021/11/01 01:40:15;;;;;;;12.18;10.39;;;;;;;6.59;63.31;101819.55;461561;113;930417;-76
2021/11/01 01:41:21;;;;;;;12.80;8.84;;;;;;;6.62;63.25;101808.38;461782;113;930293;-76
2021/11/01 01:42:25;;;;;;;10.89;9.68;;;;;;;6.64;63.17;101809.94;460852;113;923017;-75
2021/11/01 01:43:29;;;;;;;10.90;9.89;;;;;;;6.69;63.07;101817.58;461410;113;923124;-76
2021/11/01 01:44:33;;;;;;;10.81;9.10;;;;;;;6.69;63.02;101813.02;462268;113;922503;-76
2021/11/01 01:45:37;;;;;;;10.26;9.33;;;;;;;6.72;63.00;101808.30;462080;113;922607;-78
2021/11/01 01:46:40;;;;;;;10.55;9.26;;;;;;;6.74;62.95;101811.67;461512;114;923088;-75
2021/11/01 01:47:44;;;;;;;10.73;9.69;;;;;;;6.76;62.88;101815.94;461575;114;922870;-76
2021/11/01 01:48:47;;;;;;;11.14;9.50;;;;;;;6.78;62.82;101819.33;461272;113;923057;-76
2021/11/01 01:49:51;;;;;;;9.87;8.94;;;;;;;6.80;62.84;101811.04;462275;113;922563;-74
2021/11/01 01:50:55;;;;;;;10.17;9.08;;;;;;;6.81;62.73;101813.60;461885;114;922771;-74
2021/11/01 01:51:59;;;;;;;10.31;9.30;;;;;;;6.83;62.70;101817.02;450864;116;922725;-75
2021/11/01 01:53:03;;;;;;;10.51;9.45;;;;;;;6.85;62.64;101814.97;447483;117;923268;-74
2021/11/01 01:54:06;;;;;;;10.73;9.71;;;;;;;6.86;62.56;101816.67;442481;118;922600;-76
2021/11/01 01:55:12;;;;;;;10.76;9.74;;;;;;;6.88;62.50;101820.09;448587;117;930535;-75
2021/11/01 01:56:15;;;;;;;11.54;10.40;;;;;;;6.89;62.44;101812.81;449160;117;930543;-77
2021/11/01 01:57:19;;;;;;;11.34;9.49;;;;;;;6.89;62.44;101810.92;449548;116;922553;-76
2021/11/01 01:58:27;;;;;;;12.59;10.09;;;;;;;6.91;62.48;101821.61;449818;116;923656;-76
2021/11/01 01:59:32;;;;;;;11.36;10.06;;;;;;;6.93;62.46;101816.89;439850;119;923036;-76
2021/11/01 02:01:41;;;;;;;11.10;10.08;;;;;;;6.96;62.33;101817.41;450378;117;922668;-75
2021/11/01 02:02:46;;;;;;;10.61;9.65;;;;;;;6.98;62.31;101809.97;441324;118;922688;-75
2021/11/01 02:03:51;;;;;;;10.87;9.59;;;;;;;6.99;62.28;101802.69;449830;117;922978;-75
2021/11/01 02:04:55;;;;;;;11.13;10.08;;;;;;;7.00;62.23;101810.64;441356;119;923063;-74
2021/11/01 02:06:02;;;;;;;9.89;9.01;;;;;;;7.01;62.27;101812.34;446806;116;922518;-75
2021/11/01 02:07:28;;;;;;;10.18;9.20;;;;;;;7.02;62.23;101802.35;442177;118;930618;-74
2021/11/01 02:08:44;;;;;;;9.54;8.44;;;;;;;7.04;62.21;101805.77;443726;119;922632;-75
2021/11/01 02:09:54;;;;;;;9.96;9.02;;;;;;;7.06;62.20;101798.30;439648;118;923055;-75
2021/11/01 02:11:01;;;;;;;13.98;9.56;;;;;;;7.06;62.20;101795.58;449314;116;923247;-75
2021/11/01 02:12:09;;;;;;;10.58;9.53;;;;;;;7.07;62.22;101813.56;448626;116;922738;-76
2021/11/01 02:13:15;;;;;;;11.26;8.89;;;;;;;7.07;62.24;101805.42;441821;119;922687;-73
2021/11/01 02:14:22;;;;;;;9.60;8.70;;;;;;;7.08;62.22;101807.13;449260;116;922467;-76
2021/11/01 02:15:44;;;;;;;9.23;8.06;;;;;;;7.09;62.19;101795.28;438056;118;922467;-76
2021/11/01 02:16:50;;;;;;;9.09;7.88;;;;;;;7.10;62.13;101802.41;436707;118;922719;-74
2021/11/01 02:17:56;;;;;;;9.57;8.69;;;;;;;7.11;62.14;101814.97;436062;118;923068;-75
2021/11/01 02:19:03;;;;;;;9.02;8.25;;;;;;;7.10;62.14;101808.69;443938;119;922585;-75
2021/11/01 02:20:09;;;;;;;9.28;8.44;;;;;;;7.10;62.11;101800.55;443434;117;923141;-75
2021/11/01 02:21:25;;;;;;;10.46;9.34;;;;;;;7.12;62.12;101803.08;444388;119;922593;-73
2021/11/01 02:22:55;;;;;;;9.53;8.64;;;;;;;7.11;62.06;101810.36;450000;117;922628;-74
2021/11/01 02:24:05;;;;;;;10.01;9.13;;;;;;;7.10;62.13;101799.70;442171;119;922732;-72
2021/11/01 02:25:12;;;;;;;9.74;8.78;;;;;;;7.10;62.15;101799.70;446043;118;923017;-75
2021/11/01 02:26:18;;;;;;;9.55;8.68;;;;;;;7.10;62.17;101803.26;442970;118;922750;-74
2021/11/01 02:27:25;;;;;;;9.35;8.51;;;;;;;7.12;62.21;101800.36;449928;116;922646;-73
2021/11/01 02:28:31;;;;;;;9.59;8.71;;;;;;;7.13;62.29;101797.50;449025;117;922594;-75
2021/11/01 02:29:35;;;;;;;9.85;8.96;;;;;;;7.16;62.22;101798.20;450320;116;923258;-74
2021/11/01 02:30:40;;;;;;;9.64;8.87;;;;;;;7.17;62.17;101795.30;449291;116;923553;-73
2021/11/01 02:31:44;;;;;;;11.62;8.92;;;;;;;7.19;62.14;101797.85;449820;116;922629;-74
2021/11/01 02:32:49;;;;;;;10.62;9.54;;;;;;;7.19;62.13;101793.28;449729;116;922598;-75
2021/11/01 02:33:54;;;;;;;11.29;9.48;;;;;;;7.20;62.15;101794.14;450029;117;922947;-76
2021/11/01 02:34:57;;;;;;;10.14;9.18;;;;;;;7.20;62.14;101797.70;449785;116;922551;-75
2021/11/01 02:36:02;;;;;;;10.89;8.99;;;;;;;7.21;62.10;101793.98;451149;117;922995;-72
2021/11/01 02:37:08;;;;;;;9.67;8.86;;;;;;;7.22;62.04;101802.97;450141;117;930701;-73
2021/11/01 02:38:14;;;;;;;9.27;8.37;;;;;;;7.22;62.07;101797.55;450623;117;922475;-75
2021/11/01 02:39:18;;;;;;;10.27;8.86;;;;;;;7.22;62.05;101792.98;449392;117;922415;-75
2021/11/01 02:40:28;;;;;;;10.16;8.69;;;;;;;7.22;62.04;101794.83;449646;117;922497;-76
2021/11/01 02:41:33;;;;;;;9.14;8.24;;;;;;;7.22;62.06;101798.40;449193;117;930630;-73
2021/11/01 02:42:38;;;;;;;10.46;8.72;;;;;;;7.22;62.01;101789.41;450482;117;922899;-74
2021/11/01 02:43:42;;;;;;;10.65;8.61;;;;;;;7.22;62.08;101794.83;443240;117;922828;-74
2021/11/01 02:45:01;;;;;;;9.60;8.81;;;;;;;7.22;62.08;101783.98;440114;119;922611;-74
2021/11/01 02:46:06;;;;;;;10.51;8.51;;;;;;;7.23;62.13;101785.66;443121;119;922520;-73
2021/11/01 02:47:10;;;;;;;11.25;9.04;;;;;;;7.24;62.12;101790.08;448638;117;923045;-75
2021/11/01 02:48:14;;;;;;;9.51;8.49;;;;;;;7.24;62.09;101788.22;436517;119;922796;-75
2021/11/01 02:49:17;;;;;;;10.28;9.10;;;;;;;7.24;62.13;101779.22;436794;119;930631;-73
2021/11/01 02:50:23;;;;;;;10.14;9.18;;;;;;;7.23;62.19;101786.51;449944;117;922910;-75
2021/11/01 02:51:28;;;;;;;9.38;8.45;;;;;;;7.24;62.16;101787.36;449585;116;922725;-74
2021/11/01 02:52:32;;;;;;;10.08;8.72;;;;;;;7.25;62.19;101780.93;447138;116;922943;-74
2021/11/01 02:53:36;;;;;;;12.87;9.17;;;;;;;7.25;62.17;101776.36;461430;113;922361;-76
2021/11/01 02:54:39;;;;;;;9.38;8.38;;;;;;;7.25;62.15;101772.79;462096;114;922978;-74
2021/11/01 02:55:43;;;;;;;9.98;8.59;;;;;;;7.25;62.10;101779.07;461496;113;930561;-74
2021/11/01 02:56:46;;;;;;;10.63;9.08;;;;;;;7.24;62.11;101773.80;461135;113;922703;-74
2021/11/01 02:57:50;;;;;;;9.47;8.54;;;;;;;7.24;62.15;101776.52;462082;113;922710;-74
2021/11/01 02:58:54;;;;;;;10.00;8.46;;;;;;;7.24;62.17;101773.80;461762;114;923199;-74
2021/11/01 02:59:57;;;;;;;9.91;8.48;;;;;;;7.23;62.14;101770.23;461626;113;922624;-75
2021/11/01 03:01:02;;;;;;;11.41;9.28;;;;;;;7.24;62.17;101780.08;461032;113;922467;-74
2021/11/01 03:02:06;;;;;;;8.99;8.08;;;;;;;7.23;62.19;101769.38;461179;113;930548;-75
2021/11/01 03:03:10;;;;;;;9.30;8.10;;;;;;;7.24;62.24;101771.09;460738;113;922509;-74
2021/11/01 03:04:13;;;;;;;10.35;8.39;;;;;;;7.24;62.24;101780.08;461054;113;923015;-74
2021/11/01 03:05:20;;;;;;;12.56;8.26;;;;;;;7.25;62.20;101772.79;461336;113;930584;-74
2021/11/01 03:06:27;;;;;;;9.38;8.52;;;;;;;7.24;62.23;101774.66;462387;113;922508;-75
2021/11/01 03:07:31;;;;;;;8.77;8.02;;;;;;;7.26;62.25;101771.78;461007;114;922906;-74
2021/11/01 03:08:36;;;;;;;9.11;8.26;;;;;;;7.26;62.25;101760.94;461389;113;923225;-73
2021/11/01 03:09:44;;;;;;;9.52;8.61;;;;;;;7.28;62.21;101758.89;461941;113;930603;-74
2021/11/01 03:10:52;;;;;;;9.73;8.70;;;;;;;7.28;62.17;101756.17;461346;113;930582;-75
2021/11/01 03:11:53;;;;;;;10.84;8.11;;;;;;;7.29;62.15;101763.30;461527;114;922740;-75
2021/11/01 03:12:59;;;;;;;11.91;8.86;;;;;;;7.29;62.15;101760.59;462201;113;922794;-73
2021/11/01 03:14:02;;;;;;;9.58;8.56;;;;;;;7.26;62.16;101758.22;462130;113;930798;-74
2021/11/01 03:15:08;;;;;;;9.25;8.34;;;;;;;7.24;62.11;101760.23;461870;114;923127;-75
2021/11/01 03:16:14;;;;;;;9.18;8.32;;;;;;;7.20;62.26;101754.30;461365;113;922549;-74
2021/11/01 03:17:21;;;;;;;9.01;8.20;;;;;;;7.18;62.22;101753.61;461507;113;922645;-74
2021/11/01 03:18:39;;;;;;;10.20;9.26;;;;;;;7.16;62.31;101755.66;461613;113;922471;-75
2021/11/01 03:19:49;;;;;;;9.30;8.44;;;;;;;7.16;62.40;101749.38;460875;113;922642;-75
2021/11/01 03:20:53;;;;;;;10.72;8.76;;;;;;;7.16;62.49;101760.22;460984;113;923217;-76
2021/11/01 03:22:00;;;;;;;8.60;7.88;;;;;;;7.18;62.51;101744.61;461066;113;923369;-74
2021/11/01 03:23:13;;;;;;;9.95;8.86;;;;;;;7.19;62.48;101749.88;462166;113;923460;-74
2021/11/01 03:24:18;;;;;;;8.95;8.07;;;;;;;7.21;62.47;101747.02;461963;114;923000;-75
2021/11/01 03:25:29;;;;;;;8.80;7.88;;;;;;;7.22;62.46;101744.15;460204;113;922508;-74
2021/11/01 03:26:34;;;;;;;9.48;8.63;;;;;;;7.24;62.41;101743.96;445861;116;930692;-74
2021/11/01 03:27:40;;;;;;;9.54;8.52;;;;;;;7.25;62.40;101742.95;447150;114;922597;-74
2021/11/01 03:28:48;;;;;;;9.46;8.66;;;;;;;7.26;62.42;101739.23;461528;113;930547;-73
2021/11/01 03:29:54;;;;;;;9.94;9.14;;;;;;;7.26;62.38;101744.66;460710;113;922953;-75
2021/11/01 03:31:00;;;;;;;9.44;8.67;;;;;;;7.27;62.39;101743.65;462400;113;922577;-73
2021/11/01 03:32:07;;;;;;;9.46;8.55;;;;;;;7.27;62.35;101739.08;462076;114;922582;-75
2021/11/01 03:33:13;;;;;;;9.61;8.72;;;;;;;7.28;62.35;101740.75;461599;113;922990;-75
2021/11/01 03:34:18;;;;;;;9.26;8.48;;;;;;;7.29;62.34;101736.17;460886;113;922576;-76
2021/11/01 03:35:25;;;;;;;10.80;9.39;;;;;;;7.28;62.35;101742.61;461783;113;922674;-73
2021/11/01 03:36:29;;;;;;;9.68;8.82;;;;;;;7.29;62.34;101741.59;460860;112;923093;-75
2021/11/01 03:37:33;;;;;;;9.96;9.18;;;;;;;7.28;62.34;101735.32;461040;114;922524;-74
2021/11/01 03:38:39;;;;;;;11.12;10.03;;;;;;;7.29;62.38;101741.59;460321;113;922851;-75
2021/11/01 03:39:45;;;;;;;9.97;9.06;;;;;;;7.31;62.36;101745.01;460842;114;923281;-74
2021/11/01 03:40:50;;;;;;;10.99;9.97;;;;;;;7.33;62.35;101737.56;461587;114;923283;-73
2021/11/01 03:41:54;;;;;;;12.41;9.38;;;;;;;7.33;62.34;101737.56;460887;113;923077;-75
2021/11/01 03:42:59;;;;;;;12.67;10.35;;;;;;;7.35;62.36;101738.23;461887;113;922450;-75
2021/11/01 03:44:06;;;;;;;10.88;9.85;;;;;;;7.35;62.28;101743.66;461234;114;923121;-76
2021/11/01 03:45:10;;;;;;;11.79;9.48;;;;;;;7.34;62.23;101733.81;461260;114;930725;-76
2021/11/01 03:46:15;;;;;;;12.06;10.11;;;;;;;7.34;62.26;101741.95;461253;113;922662;-74
2021/11/01 03:47:20;;;;;;;10.30;9.44;;;;;;;7.33;62.22;101740.28;459845;113;922908;-73
2021/11/01 03:48:25;;;;;;;10.66;9.69;;;;;;;7.33;62.23;101738.38;461101;113;930554;-73
2021/11/01 03:49:30;;;;;;;11.03;9.18;;;;;;;7.31;62.27;101731.44;461925;113;923019;-74
2021/11/01 03:50:40;;;;;;;10.21;9.21;;;;;;;7.31;62.23;101728.73;460808;113;930498;-74
2021/11/01 03:51:51;;;;;;;11.96;9.36;;;;;;;7.32;62.22;101730.44;459743;113;922551;-75
2021/11/01 03:52:54;;;;;;;10.78;9.34;;;;;;;7.33;62.22;101734.85;457500;114;923140;-74
2021/11/01 03:53:58;;;;;;;10.25;9.24;;;;;;;7.34;62.22;101722.96;456416;114;922664;-73
2021/11/01 03:55:03;;;;;;;10.94;9.83;;;;;;;7.34;62.22;101717.53;456326;115;923023;-74
2021/11/01 03:56:07;;;;;;;9.91;8.69;;;;;;;7.35;62.17;101730.94;456142;114;930538;-75
2021/11/01 03:57:12;;;;;;;11.29;9.28;;;;;;;7.36;62.15;101734.51;456452;115;922666;-75
2021/11/01 03:58:15;;;;;;;13.98;9.08;;;;;;;7.36;62.10;101729.08;456040;114;922566;-77
2021/11/01 03:59:19;;;;;;;14.57;9.23;;;;;;;7.36;62.09;101729.93;456165;115;922657;-74
2021/11/01 04:00:26;;;;;;;11.73;9.41;;;;;;;7.35;62.08;101725.52;456542;115;930434;-74
2021/11/01 04:01:30;;;;;;;9.76;8.86;;;;;;;7.35;62.03;101728.23;456782;115;922642;-75
2021/11/01 04:02:34;;;;;;;9.63;8.20;;;;;;;7.33;61.97;101727.53;456013;115;923070;-74
2021/11/01 04:03:41;;;;;;;9.08;8.19;;;;;;;7.31;62.06;101726.02;456087;114;922888;-73
2021/11/01 04:04:47;;;;;;;11.39;8.63;;;;;;;7.30;62.07;101729.74;456545;115;922637;-75
2021/11/01 04:05:54;;;;;;;9.50;8.53;;;;;;;7.28;62.08;101729.05;455954;115;922657;-75
2021/11/01 04:06:59;;;;;;;9.44;8.52;;;;;;;7.26;62.10;101731.09;456463;114;922709;-75
2021/11/01 04:08:03;;;;;;;10.70;8.44;;;;;;;7.26;62.11;101733.80;455990;114;923378;-74
2021/11/01 04:09:09;;;;;;;13.08;8.32;;;;;;;7.24;62.14;101727.69;455822;113;923233;-75
2021/11/01 04:10:14;;;;;;;8.56;7.75;;;;;;;7.22;62.16;101724.31;456336;115;923126;-76
2021/11/01 04:11:18;;;;;;;11.91;8.67;;;;;;;7.22;62.19;101732.45;456065;115;923497;-75
2021/11/01 04:12:21;;;;;;;14.30;9.12;;;;;;;7.20;62.20;101723.61;455894;115;930577;-75
2021/11/01 04:13:25;;;;;;;10.14;8.91;;;;;;;7.18;62.21;101720.20;456645;115;922666;-74
2021/11/01 04:14:36;;;;;;;9.30;8.49;;;;;;;7.17;62.24;101721.25;456468;114;922550;-73
2021/11/01 04:15:41;;;;;;;12.58;8.59;;;;;;;7.15;62.27;101724.11;455302;115;923231;-74
2021/11/01 04:16:47;;;;;;;11.36;8.08;;;;;;;7.14;62.31;101725.13;455394;115;922932;-74
2021/11/01 04:17:54;;;;;;;17.03;9.29;;;;;;;7.13;62.34;101715.28;454999;113;922663;-74
2021/11/01 04:21:22;;;;;;;12.67;9.19;;;;;;;7.12;62.37;101727.98;465383;111;922656;-75
2021/11/01 04:22:28;;;;;;;12.24;8.93;;;;;;;7.12;62.36;101719.00;466424;111;922651;-75
2021/11/01 04:23:32;;;;;;;10.83;9.28;;;;;;;7.12;62.38;101719.85;457890;112;930606;-75
2021/11/01 04:24:35;;;;;;;10.11;8.41;;;;;;;7.12;62.35;101722.56;456357;114;922703;-73
2021/11/01 04:25:39;;;;;;;14.83;8.96;;;;;;;7.11;62.37;101722.75;457245;113;923200;-75
2021/11/01 04:26:43;;;;;;;13.48;9.05;;;;;;;7.11;62.43;101720.86;458456;114;923000;-75
2021/11/01 04:27:47;;;;;;;10.69;9.52;;;;;;;7.11;62.45;101720.86;456467;113;923349;-75
2021/11/01 04:28:51;;;;;;;10.48;9.10;;;;;;;7.12;62.44;101730.70;457133;114;923010;-75
2021/11/01 04:29:57;;;;;;;11.39;9.31;;;;;;;7.14;62.40;101722.41;455911;113;922689;-75
2021/11/01 04:31:09;;;;;;;17.25;9.71;;;;;;;7.11;62.38;101712.72;455856;113;922599;-74
2021/11/01 04:32:16;;;;;;;11.86;10.23;;;;;;;7.10;62.44;101721.90;454959;113;922570;-76
2021/11/01 04:33:17;;;;;;;11.51;9.14;;;;;;;7.09;62.42;101717.48;455857;113;922959;-76
2021/11/01 04:34:32;;;;;;;10.59;9.58;;;;;;;7.08;62.41;101723.91;455095;114;922743;-73
2021/11/01 04:35:37;;;;;;;14.43;9.07;;;;;;;7.07;62.48;101716.79;454904;114;922700;-74
2021/11/01 04:36:41;;;;;;;14.07;9.59;;;;;;;7.09;62.49;101722.05;453479;113;922806;-74
2021/11/01 04:37:47;;;;;;;11.69;8.68;;;;;;;7.08;62.51;101720.35;454404;114;923582;-75
2021/11/01 04:39:03;;;;;;;11.59;9.31;;;;;;;7.06;62.44;101717.80;459709;114;922962;-74
2021/11/01 04:53:14;;;;;;;11.99;10.37;;;;;;;7.24;62.55;101716.83;475171;110;947340;-75
2021/11/01 04:54:17;;;;;;;9.81;8.89;;;;;;;7.12;62.57;101711.72;466777;110;922595;-74
2021/11/01 04:55:22;;;;;;;10.77;8.75;;;;;;;7.12;62.53;101711.72;468089;110;922788;-76
2021/11/01 04:56:26;;;;;;;11.32;8.79;;;;;;;7.10;62.44;101711.05;467018;110;922666;-75
2021/11/01 04:57:30;;;;;;;9.25;7.98;;;;;;;7.09;62.50;101708.50;467298;110;922608;-75
2021/11/01 04:58:34;;;;;;;11.76;9.04;;;;;;;7.07;62.53;101715.94;467487;111;923075;-75
2021/11/01 04:59:39;;;;;;;10.03;8.22;;;;;;;7.06;62.56;101706.95;467521;111;930643;-75
2021/11/01 05:00:45;;;;;;;9.90;8.95;;;;;;;7.06;62.53;101711.52;460244;112;922831;-75
2021/11/01 05:01:53;;;;;;;11.63;8.42;;;;;;;7.04;62.58;101711.70;458805;112;922737;-76
2021/11/01 05:03:04;;;;;;;9.66;8.00;;;;;;;7.03;62.59;101710.00;454693;114;922819;-75
2021/11/01 05:04:06;;;;;;;9.41;8.12;;;;;;;7.03;62.61;101711.86;454993;112;922817;-76
2021/11/01 05:05:08;;;;;;;13.02;8.51;;;;;;;7.03;62.63;101711.86;469056;111;923513;-76
2021/11/01 05:06:18;;;;;;;12.00;9.07;;;;;;;7.03;62.72;101718.14;468611;111;923033;-76
2021/11/01 05:07:18;;;;;;;17.86;8.62;;;;;;;7.05;62.81;101715.27;465474;111;922767;-73
2021/11/01 05:08:26;;;;;;;10.24;8.38;;;;;;;7.07;62.79;101711.36;468596;111;922609;-75
2021/11/01 05:09:58;;;;;;;10.76;8.47;;;;;;;7.09;62.80;101703.92;468524;110;923364;-78
2021/11/01 05:10:37;;;;;;;10.37;8.37;;;;;;;7.11;62.74;101703.77;462528;110;923148;-75
2021/11/01 05:11:47;;;;;;;14.21;9.12;;;;;;;7.12;62.69;101706.29;468386;111;922710;-76
2021/11/01 05:12:44;;;;;;;11.14;8.16;;;;;;;7.13;62.69;101704.43;466918;112;924021;-73
2021/11/01 05:13:47;;;;;;;9.57;7.78;;;;;;;7.15;62.66;101706.98;467838;111;922625;-75
2021/11/01 05:15:03;;;;;;;9.46;8.27;;;;;;;7.16;62.66;101703.27;468017;112;922756;-74
2021/11/01 05:16:13;;;;;;;11.02;7.60;;;;;;;7.18;62.63;101706.64;467029;112;922906;-75
2021/11/01 05:18:50;;;;;;;14.79;8.35;;;;;;;7.20;62.56;101701.91;458179;113;922745;-76
2021/11/01 05:20:00;;;;;;;11.71;8.15;;;;;;;7.21;62.58;101696.33;465492;110;922940;-77